Comodoro Py, Argentina
Current Conditions -  °F | °C
As of 1:00 PM on Tuesday 21 Oct 2014 (Local Time) from SAEZ Reporting Station
Clear Clear  
Wind Chill: 81°   Ceiling: Unl
Heat Index: 81°   Visibility: 6mi
Dew Point: 52°   Wind: 12mph
Humidity: 37%   Direction: 330°NNW
Pressure: 30.06"   Gusts: NA
Location:  35.32°S, 60.52°W
Report Text: SAEZ 211600Z 33010KT 300V010 CAVOK 27/11 Q1018
Loading
Personal Weather Stations






























Interactive Weather Map New forecast layout! Learn more

10-Day Weather Forecast

Advertisements
Track Severe Weather on mobile